sensor_id;sensor_type;location;lat;lon;timestamp;P1;durP1;ratioP1;P2;durP2;ratioP2
9789;SDS011;4934;50.852;8.098;2022-12-01T00:01:32;11.80;;;5.07;;
9789;SDS011;4934;50.852;8.098;2022-12-01T00:03:57;12.60;;;5.40;;
9789;SDS011;4934;50.852;8.098;2022-12-01T00:06:23;10.60;;;4.95;;
9789;SDS011;4934;50.852;8.098;2022-12-01T00:08:49;10.60;;;4.43;;
9789;SDS011;4934;50.852;8.098;2022-12-01T00:11:35;11.20;;;5.00;;
9789;SDS011;4934;50.852;8.098;2022-12-01T00:14:01;8.30;;;4.47;;
9789;SDS011;4934;50.852;8.098;2022-12-01T00:16:27;8.73;;;4.55;;
9789;SDS011;4934;50.852;8.098;2022-12-01T00:18:53;11.35;;;5.18;;
9789;SDS011;4934;50.852;8.098;2022-12-01T00:21:20;8.75;;;4.60;;
9789;SDS011;4934;50.852;8.098;2022-12-01T00:23:48;11.85;;;4.40;;
9789;SDS011;4934;50.852;8.098;2022-12-01T00:26:16;9.10;;;4.53;;
9789;SDS011;4934;50.852;8.098;2022-12-01T00:28:42;7.97;;;3.70;;
9789;SDS011;4934;50.852;8.098;2022-12-01T00:31:08;6.40;;;3.20;;
9789;SDS011;4934;50.852;8.098;2022-12-01T00:33:35;8.88;;;4.18;;
9789;SDS011;4934;50.852;8.098;2022-12-01T00:36:00;9.65;;;3.92;;
9789;SDS011;4934;50.852;8.098;2022-12-01T00:38:27;8.05;;;3.85;;
9789;SDS011;4934;50.852;8.098;2022-12-01T00:40:53;6.00;;;3.05;;
9789;SDS011;4934;50.852;8.098;2022-12-01T00:43:19;4.15;;;2.60;;
9789;SDS011;4934;50.852;8.098;2022-12-01T00:45:45;7.82;;;3.60;;
9789;SDS011;4934;50.852;8.098;2022-12-01T00:48:11;5.93;;;2.95;;
9789;SDS011;4934;50.852;8.098;2022-12-01T00:50:36;6.72;;;3.35;;
9789;SDS011;4934;50.852;8.098;2022-12-01T00:53:02;6.32;;;3.35;;
9789;SDS011;4934;50.852;8.098;2022-12-01T00:55:37;5.32;;;2.95;;
9789;SDS011;4934;50.852;8.098;2022-12-01T00:58:04;9.10;;;3.45;;
9789;SDS011;4934;50.852;8.098;2022-12-01T01:00:29;6.82;;;3.75;;
9789;SDS011;4934;50.852;8.098;2022-12-01T01:02:55;6.53;;;3.58;;
9789;SDS011;4934;50.852;8.098;2022-12-01T01:05:21;6.68;;;2.92;;
9789;SDS011;4934;50.852;8.098;2022-12-01T01:07:47;5.75;;;2.55;;
9789;SDS011;4934;50.852;8.098;2022-12-01T01:10:12;4.82;;;2.55;;
9789;SDS011;4934;50.852;8.098;2022-12-01T01:12:38;7.53;;;3.30;;
9789;SDS011;4934;50.852;8.098;2022-12-01T01:15:04;4.90;;;2.95;;
9789;SDS011;4934;50.852;8.098;2022-12-01T01:17:31;7.53;;;3.30;;
9789;SDS011;4934;50.852;8.098;2022-12-01T01:19:57;6.00;;;3.03;;
9789;SDS011;4934;50.852;8.098;2022-12-01T01:22:23;4.00;;;2.63;;
9789;SDS011;4934;50.852;8.098;2022-12-01T01:24:49;6.03;;;3.22;;
9789;SDS011;4934;50.852;8.098;2022-12-01T01:27:14;5.57;;;2.60;;
9789;SDS011;4934;50.852;8.098;2022-12-01T01:29:52;6.90;;;3.05;;
9789;SDS011;4934;50.852;8.098;2022-12-01T01:32:18;5.93;;;3.50;;
9789;SDS011;4934;50.852;8.098;2022-12-01T01:34:44;10.98;;;4.20;;
9789;SDS011;4934;50.852;8.098;2022-12-01T01:37:09;15.55;;;5.43;;
9789;SDS011;4934;50.852;8.098;2022-12-01T01:39:35;9.20;;;4.10;;
9789;SDS011;4934;50.852;8.098;2022-12-01T01:42:00;9.88;;;4.95;;
9789;SDS011;4934;50.852;8.098;2022-12-01T01:44:45;7.90;;;4.05;;
9789;SDS011;4934;50.852;8.098;2022-12-01T01:47:24;6.18;;;3.65;;
9789;SDS011;4934;50.852;8.098;2022-12-01T01:49:55;6.18;;;3.58;;
9789;SDS011;4934;50.852;8.098;2022-12-01T01:52:23;6.43;;;3.67;;
9789;SDS011;4934;50.852;8.098;2022-12-01T01:54:50;9.50;;;4.03;;
9789;SDS011;4934;50.852;8.098;2022-12-01T01:57:22;7.30;;;3.78;;
9789;SDS011;4934;50.852;8.098;2022-12-01T01:59:57;7.43;;;3.88;;
9789;SDS011;4934;50.852;8.098;2022-12-01T02:02:26;9.23;;;3.63;;
9789;SDS011;4934;50.852;8.098;2022-12-01T02:04:55;7.70;;;3.63;;
9789;SDS011;4934;50.852;8.098;2022-12-01T02:07:24;8.45;;;4.13;;
9789;SDS011;4934;50.852;8.098;2022-12-01T02:09:50;8.05;;;3.78;;
9789;SDS011;4934;50.852;8.098;2022-12-01T02:12:27;10.98;;;4.30;;
9789;SDS011;4934;50.852;8.098;2022-12-01T02:18:09;6.93;;;4.03;;
9789;SDS011;4934;50.852;8.098;2022-12-01T02:40:30;10.13;;;4.57;;
9789;SDS011;4934;50.852;8.098;2022-12-01T02:43:08;7.90;;;3.60;;
9789;SDS011;4934;50.852;8.098;2022-12-01T02:48:36;9.77;;;4.22;;
9789;SDS011;4934;50.852;8.098;2022-12-01T02:51:25;7.07;;;4.15;;
9789;SDS011;4934;50.852;8.098;2022-12-01T02:53:56;7.22;;;4.15;;
9789;SDS011;4934;50.852;8.098;2022-12-01T02:56:24;9.13;;;4.10;;
9789;SDS011;4934;50.852;8.098;2022-12-01T02:58:50;10.40;;;4.78;;
9789;SDS011;4934;50.852;8.098;2022-12-01T03:01:35;14.25;;;4.28;;
9789;SDS011;4934;50.852;8.098;2022-12-01T03:06:54;6.70;;;3.78;;
9789;SDS011;4934;50.852;8.098;2022-12-01T03:20:55;5.93;;;3.58;;
9789;SDS011;4934;50.852;8.098;2022-12-01T03:23:31;8.93;;;4.00;;
9789;SDS011;4934;50.852;8.098;2022-12-01T03:26:00;7.47;;;3.90;;
9789;SDS011;4934;50.852;8.098;2022-12-01T03:28:32;6.65;;;3.28;;
9789;SDS011;4934;50.852;8.098;2022-12-01T03:31:08;7.78;;;3.17;;
9789;SDS011;4934;50.852;8.098;2022-12-01T03:33:39;6.75;;;3.05;;
9789;SDS011;4934;50.852;8.098;2022-12-01T03:36:09;7.22;;;3.65;;
9789;SDS011;4934;50.852;8.098;2022-12-01T03:38:41;10.80;;;4.18;;
9789;SDS011;4934;50.852;8.098;2022-12-01T03:41:15;4.97;;;2.88;;
9789;SDS011;4934;50.852;8.098;2022-12-01T03:43:50;6.65;;;3.00;;
9789;SDS011;4934;50.852;8.098;2022-12-01T03:46:35;7.97;;;3.75;;
9789;SDS011;4934;50.852;8.098;2022-12-01T03:49:11;5.97;;;3.10;;
9789;SDS011;4934;50.852;8.098;2022-12-01T03:54:21;5.88;;;3.20;;
9789;SDS011;4934;50.852;8.098;2022-12-01T03:57:13;6.65;;;3.50;;
9789;SDS011;4934;50.852;8.098;2022-12-01T03:59:48;6.80;;;3.50;;
9789;SDS011;4934;50.852;8.098;2022-12-01T04:02:14;7.32;;;3.45;;
9789;SDS011;4934;50.852;8.098;2022-12-01T04:04:41;7.63;;;3.83;;
9789;SDS011;4934;50.852;8.098;2022-12-01T04:09:58;7.78;;;3.70;;
9789;SDS011;4934;50.852;8.098;2022-12-01T04:12:31;6.95;;;3.97;;
9789;SDS011;4934;50.852;8.098;2022-12-01T04:14:59;7.05;;;3.97;;
9789;SDS011;4934;50.852;8.098;2022-12-01T04:19:51;9.15;;;4.65;;
9789;SDS011;4934;50.852;8.098;2022-12-01T04:22:27;9.60;;;4.30;;
9789;SDS011;4934;50.852;8.098;2022-12-01T04:24:53;11.95;;;4.10;;
9789;SDS011;4934;50.852;8.098;2022-12-01T04:27:18;8.05;;;4.30;;
9789;SDS011;4934;50.852;8.098;2022-12-01T04:29:45;7.43;;;4.20;;
9789;SDS011;4934;50.852;8.098;2022-12-01T04:32:10;7.78;;;4.15;;
9789;SDS011;4934;50.852;8.098;2022-12-01T04:34:37;9.25;;;4.40;;
9789;SDS011;4934;50.852;8.098;2022-12-01T04:37:04;6.80;;;4.13;;
9789;SDS011;4934;50.852;8.098;2022-12-01T04:39:30;8.00;;;4.00;;
9789;SDS011;4934;50.852;8.098;2022-12-01T04:41:55;9.00;;;4.47;;
9789;SDS011;4934;50.852;8.098;2022-12-01T04:44:21;7.97;;;4.05;;
9789;SDS011;4934;50.852;8.098;2022-12-01T04:46:50;10.30;;;4.60;;
9789;SDS011;4934;50.852;8.098;2022-12-01T04:49:17;11.63;;;5.07;;
9789;SDS011;4934;50.852;8.098;2022-12-01T04:51:43;9.57;;;5.13;;
9789;SDS011;4934;50.852;8.098;2022-12-01T04:54:10;8.73;;;4.53;;
9789;SDS011;4934;50.852;8.098;2022-12-01T04:56:36;11.63;;;5.07;;
9789;SDS011;4934;50.852;8.098;2022-12-01T04:59:01;9.93;;;4.38;;
9789;SDS011;4934;50.852;8.098;2022-12-01T05:01:27;9.55;;;4.70;;
9789;SDS011;4934;50.852;8.098;2022-12-01T05:03:53;10.52;;;4.38;;
9789;SDS011;4934;50.852;8.098;2022-12-01T05:06:20;7.15;;;4.35;;
9789;SDS011;4934;50.852;8.098;2022-12-01T05:08:47;7.93;;;4.35;;
9789;SDS011;4934;50.852;8.098;2022-12-01T05:11:13;9.23;;;4.45;;
9789;SDS011;4934;50.852;8.098;2022-12-01T05:13:40;11.48;;;4.93;;
9789;SDS011;4934;50.852;8.098;2022-12-01T05:16:19;8.73;;;4.35;;
9789;SDS011;4934;50.852;8.098;2022-12-01T05:18:56;9.73;;;4.63;;
9789;SDS011;4934;50.852;8.098;2022-12-01T05:21:55;8.38;;;4.38;;
9789;SDS011;4934;50.852;8.098;2022-12-01T05:24:20;10.52;;;5.47;;
9789;SDS011;4934;50.852;8.098;2022-12-01T05:26:47;11.23;;;4.82;;
9789;SDS011;4934;50.852;8.098;2022-12-01T05:29:13;11.23;;;5.00;;
9789;SDS011;4934;50.852;8.098;2022-12-01T05:31:45;11.80;;;5.38;;
9789;SDS011;4934;50.852;8.098;2022-12-01T05:34:11;12.25;;;5.22;;
9789;SDS011;4934;50.852;8.098;2022-12-01T05:36:36;10.52;;;5.15;;
9789;SDS011;4934;50.852;8.098;2022-12-01T05:39:02;10.63;;;5.40;;
9789;SDS011;4934;50.852;8.098;2022-12-01T05:41:28;10.90;;;5.05;;
9789;SDS011;4934;50.852;8.098;2022-12-01T05:43:54;11.50;;;5.72;;
9789;SDS011;4934;50.852;8.098;2022-12-01T05:46:19;13.88;;;5.88;;
9789;SDS011;4934;50.852;8.098;2022-12-01T06:10:48;17.58;;;7.75;;
9789;SDS011;4934;50.852;8.098;2022-12-01T06:13:14;18.92;;;7.30;;
9789;SDS011;4934;50.852;8.098;2022-12-01T06:15:39;18.88;;;8.45;;
9789;SDS011;4934;50.852;8.098;2022-12-01T06:18:05;18.60;;;8.88;;
9789;SDS011;4934;50.852;8.098;2022-12-01T06:20:31;19.95;;;8.15;;
9789;SDS011;4934;50.852;8.098;2022-12-01T06:22:57;22.08;;;9.38;;
9789;SDS011;4934;50.852;8.098;2022-12-01T06:25:23;20.42;;;8.45;;
9789;SDS011;4934;50.852;8.098;2022-12-01T06:27:54;20.42;;;9.30;;
9789;SDS011;4934;50.852;8.098;2022-12-01T06:30:22;23.25;;;9.18;;
9789;SDS011;4934;50.852;8.098;2022-12-01T06:35:45;16.50;;;7.90;;
9789;SDS011;4934;50.852;8.098;2022-12-01T06:38:11;17.92;;;8.63;;
9789;SDS011;4934;50.852;8.098;2022-12-01T06:40:36;18.70;;;8.57;;
9789;SDS011;4934;50.852;8.098;2022-12-01T06:43:02;24.33;;;9.00;;
9789;SDS011;4934;50.852;8.098;2022-12-01T06:45:29;21.02;;;9.10;;
9789;SDS011;4934;50.852;8.098;2022-12-01T06:47:55;22.48;;;10.18;;
9789;SDS011;4934;50.852;8.098;2022-12-01T06:50:22;22.33;;;9.48;;
9789;SDS011;4934;50.852;8.098;2022-12-01T06:52:53;20.83;;;8.93;;
9789;SDS011;4934;50.852;8.098;2022-12-01T06:55:19;23.33;;;9.25;;
9789;SDS011;4934;50.852;8.098;2022-12-01T06:57:45;20.75;;;8.98;;
9789;SDS011;4934;50.852;8.098;2022-12-01T07:00:11;21.52;;;8.30;;
9789;SDS011;4934;50.852;8.098;2022-12-01T07:02:38;21.05;;;9.32;;
9789;SDS011;4934;50.852;8.098;2022-12-01T07:05:10;21.13;;;9.10;;
9789;SDS011;4934;50.852;8.098;2022-12-01T07:07:46;22.85;;;8.30;;
9789;SDS011;4934;50.852;8.098;2022-12-01T07:10:12;22.90;;;9.05;;
9789;SDS011;4934;50.852;8.098;2022-12-01T07:12:39;21.58;;;8.98;;
9789;SDS011;4934;50.852;8.098;2022-12-01T07:15:06;24.00;;;9.38;;
9789;SDS011;4934;50.852;8.098;2022-12-01T07:17:32;17.67;;;8.00;;
9789;SDS011;4934;50.852;8.098;2022-12-01T07:19:59;20.25;;;9.23;;
9789;SDS011;4934;50.852;8.098;2022-12-01T07:22:25;19.33;;;8.60;;
9789;SDS011;4934;50.852;8.098;2022-12-01T07:24:52;19.60;;;8.70;;
9789;SDS011;4934;50.852;8.098;2022-12-01T07:27:17;21.85;;;8.88;;
9789;SDS011;4934;50.852;8.098;2022-12-01T07:29:43;22.70;;;8.73;;
9789;SDS011;4934;50.852;8.098;2022-12-01T07:32:09;20.98;;;8.93;;
9789;SDS011;4934;50.852;8.098;2022-12-01T07:34:35;20.48;;;8.25;;
9789;SDS011;4934;50.852;8.098;2022-12-01T07:37:00;19.88;;;8.60;;
9789;SDS011;4934;50.852;8.098;2022-12-01T07:39:26;19.95;;;7.95;;
9789;SDS011;4934;50.852;8.098;2022-12-01T07:41:52;16.63;;;7.93;;
9789;SDS011;4934;50.852;8.098;2022-12-01T07:44:17;19.45;;;8.82;;
9789;SDS011;4934;50.852;8.098;2022-12-01T07:46:45;19.90;;;8.27;;
9789;SDS011;4934;50.852;8.098;2022-12-01T07:49:29;22.65;;;9.30;;
9789;SDS011;4934;50.852;8.098;2022-12-01T07:51:58;19.05;;;8.00;;
9789;SDS011;4934;50.852;8.098;2022-12-01T07:54:30;25.25;;;10.13;;
9789;SDS011;4934;50.852;8.098;2022-12-01T07:56:55;24.50;;;10.52;;
9789;SDS011;4934;50.852;8.098;2022-12-01T07:59:28;21.48;;;8.82;;
9789;SDS011;4934;50.852;8.098;2022-12-01T08:01:57;23.50;;;9.57;;
9789;SDS011;4934;50.852;8.098;2022-12-01T08:04:24;20.88;;;9.13;;
9789;SDS011;4934;50.852;8.098;2022-12-01T08:06:50;22.75;;;9.73;;
9789;SDS011;4934;50.852;8.098;2022-12-01T08:09:18;20.70;;;9.35;;
9789;SDS011;4934;50.852;8.098;2022-12-01T08:11:43;20.52;;;8.88;;
9789;SDS011;4934;50.852;8.098;2022-12-01T08:14:09;21.42;;;9.10;;
9789;SDS011;4934;50.852;8.098;2022-12-01T08:16:36;22.67;;;9.32;;
9789;SDS011;4934;50.852;8.098;2022-12-01T08:19:04;29.30;;;9.70;;
9789;SDS011;4934;50.852;8.098;2022-12-01T08:22:00;20.33;;;8.80;;
9789;SDS011;4934;50.852;8.098;2022-12-01T08:24:26;20.52;;;8.55;;
9789;SDS011;4934;50.852;8.098;2022-12-01T08:26:57;22.85;;;8.75;;
9789;SDS011;4934;50.852;8.098;2022-12-01T08:29:28;20.92;;;8.88;;
9789;SDS011;4934;50.852;8.098;2022-12-01T08:32:30;22.27;;;8.98;;
9789;SDS011;4934;50.852;8.098;2022-12-01T08:35:02;23.38;;;9.38;;
9789;SDS011;4934;50.852;8.098;2022-12-01T08:37:33;24.40;;;9.10;;
9789;SDS011;4934;50.852;8.098;2022-12-01T08:39:59;27.05;;;10.43;;
9789;SDS011;4934;50.852;8.098;2022-12-01T08:42:25;20.08;;;9.57;;
9789;SDS011;4934;50.852;8.098;2022-12-01T08:45:02;18.88;;;9.48;;
9789;SDS011;4934;50.852;8.098;2022-12-01T08:50:59;21.15;;;8.82;;
9789;SDS011;4934;50.852;8.098;2022-12-01T08:53:25;21.02;;;9.10;;
9789;SDS011;4934;50.852;8.098;2022-12-01T08:55:51;20.58;;;9.98;;
9789;SDS011;4934;50.852;8.098;2022-12-01T08:58:35;22.42;;;8.38;;
9789;SDS011;4934;50.852;8.098;2022-12-01T09:01:07;21.35;;;8.60;;
9789;SDS011;4934;50.852;8.098;2022-12-01T09:03:37;22.40;;;9.05;;
9789;SDS011;4934;50.852;8.098;2022-12-01T09:06:38;18.95;;;8.48;;
9789;SDS011;4934;50.852;8.098;2022-12-01T09:09:41;20.38;;;8.20;;
9789;SDS011;4934;50.852;8.098;2022-12-01T09:13:17;24.40;;;8.43;;
9789;SDS011;4934;50.852;8.098;2022-12-01T09:15:43;23.00;;;9.40;;
9789;SDS011;4934;50.852;8.098;2022-12-01T09:18:52;23.20;;;9.05;;
9789;SDS011;4934;50.852;8.098;2022-12-01T09:24:14;18.35;;;7.82;;
9789;SDS011;4934;50.852;8.098;2022-12-01T09:26:40;19.38;;;8.07;;
9789;SDS011;4934;50.852;8.098;2022-12-01T09:29:09;19.95;;;7.97;;
9789;SDS011;4934;50.852;8.098;2022-12-01T09:31:37;20.00;;;9.20;;
9789;SDS011;4934;50.852;8.098;2022-12-01T09:34:05;20.73;;;8.90;;
9789;SDS011;4934;50.852;8.098;2022-12-01T09:36:33;17.40;;;8.25;;
9789;SDS011;4934;50.852;8.098;2022-12-01T09:39:01;16.10;;;7.50;;
9789;SDS011;4934;50.852;8.098;2022-12-01T09:41:37;19.17;;;8.18;;
9789;SDS011;4934;50.852;8.098;2022-12-01T09:46:43;20.58;;;8.88;;
9789;SDS011;4934;50.852;8.098;2022-12-01T09:49:18;23.65;;;8.82;;
9789;SDS011;4934;50.852;8.098;2022-12-01T09:51:49;21.10;;;10.15;;
9789;SDS011;4934;50.852;8.098;2022-12-01T09:54:18;20.45;;;8.60;;
9789;SDS011;4934;50.852;8.098;2022-12-01T09:56:45;23.25;;;8.85;;
9789;SDS011;4934;50.852;8.098;2022-12-01T10:02:02;24.65;;;9.20;;
9789;SDS011;4934;50.852;8.098;2022-12-01T10:10:00;25.73;;;9.43;;
9789;SDS011;4934;50.852;8.098;2022-12-01T10:12:33;29.38;;;11.00;;
9789;SDS011;4934;50.852;8.098;2022-12-01T10:20:43;34.45;;;11.30;;
9789;SDS011;4934;50.852;8.098;2022-12-01T10:23:30;32.55;;;11.43;;
9789;SDS011;4934;50.852;8.098;2022-12-01T10:44:21;54.97;;;19.63;;
9789;SDS011;4934;50.852;8.098;2022-12-01T10:46:48;58.45;;;19.98;;
9789;SDS011;4934;50.852;8.098;2022-12-01T10:49:19;63.03;;;22.00;;
9789;SDS011;4934;50.852;8.098;2022-12-01T10:51:53;65.50;;;20.15;;
9789;SDS011;4934;50.852;8.098;2022-12-01T10:54:27;65.80;;;22.23;;
9789;SDS011;4934;50.852;8.098;2022-12-01T10:57:05;66.57;;;20.75;;
9789;SDS011;4934;50.852;8.098;2022-12-01T10:59:50;59.58;;;22.23;;
9789;SDS011;4934;50.852;8.098;2022-12-01T11:02:28;63.13;;;21.75;;
9789;SDS011;4934;50.852;8.098;2022-12-01T11:05:05;67.70;;;22.85;;
9789;SDS011;4934;50.852;8.098;2022-12-01T11:07:45;64.85;;;21.95;;
9789;SDS011;4934;50.852;8.098;2022-12-01T11:13:15;58.80;;;19.88;;
9789;SDS011;4934;50.852;8.098;2022-12-01T11:15:53;58.88;;;19.30;;
9789;SDS011;4934;50.852;8.098;2022-12-01T11:21:05;57.90;;;20.65;;
9789;SDS011;4934;50.852;8.098;2022-12-01T11:23:50;52.83;;;18.95;;
9789;SDS011;4934;50.852;8.098;2022-12-01T11:26:22;57.15;;;21.70;;
9789;SDS011;4934;50.852;8.098;2022-12-01T11:34:24;58.95;;;19.52;;
9789;SDS011;4934;50.852;8.098;2022-12-01T11:36:51;54.88;;;19.40;;
9789;SDS011;4934;50.852;8.098;2022-12-01T11:39:31;56.00;;;17.98;;
9789;SDS011;4934;50.852;8.098;2022-12-01T11:42:04;52.65;;;18.83;;
9789;SDS011;4934;50.852;8.098;2022-12-01T11:47:33;56.90;;;19.58;;
9789;SDS011;4934;50.852;8.098;2022-12-01T11:50:01;55.45;;;18.25;;
9789;SDS011;4934;50.852;8.098;2022-12-01T11:52:46;54.95;;;19.85;;
9789;SDS011;4934;50.852;8.098;2022-12-01T11:57:41;55.90;;;19.23;;
9789;SDS011;4934;50.852;8.098;2022-12-01T12:00:13;56.70;;;18.38;;
9789;SDS011;4934;50.852;8.098;2022-12-01T12:05:48;51.05;;;18.98;;
9789;SDS011;4934;50.852;8.098;2022-12-01T12:08:31;49.33;;;17.02;;
9789;SDS011;4934;50.852;8.098;2022-12-01T12:19:28;46.25;;;16.17;;
9789;SDS011;4934;50.852;8.098;2022-12-01T12:25:20;37.72;;;14.00;;
9789;SDS011;4934;50.852;8.098;2022-12-01T12:30:25;35.67;;;14.20;;
9789;SDS011;4934;50.852;8.098;2022-12-01T12:33:01;35.90;;;13.30;;
9789;SDS011;4934;50.852;8.098;2022-12-01T12:38:31;33.55;;;12.30;;
9789;SDS011;4934;50.852;8.098;2022-12-01T12:41:51;31.88;;;11.60;;
9789;SDS011;4934;50.852;8.098;2022-12-01T12:52:47;36.28;;;12.82;;
9789;SDS011;4934;50.852;8.098;2022-12-01T12:55:25;42.42;;;13.85;;
9789;SDS011;4934;50.852;8.098;2022-12-01T12:58:18;43.28;;;15.98;;
9789;SDS011;4934;50.852;8.098;2022-12-01T13:01:11;36.42;;;12.52;;
9789;SDS011;4934;50.852;8.098;2022-12-01T13:06:29;39.53;;;15.30;;
9789;SDS011;4934;50.852;8.098;2022-12-01T13:09:30;43.50;;;15.13;;
9789;SDS011;4934;50.852;8.098;2022-12-01T13:12:03;38.63;;;14.38;;
9789;SDS011;4934;50.852;8.098;2022-12-01T13:15:28;41.35;;;14.77;;
9789;SDS011;4934;50.852;8.098;2022-12-01T13:20:38;40.08;;;14.93;;
9789;SDS011;4934;50.852;8.098;2022-12-01T13:23:07;43.50;;;15.57;;
9789;SDS011;4934;50.852;8.098;2022-12-01T13:25:40;41.95;;;15.13;;
9789;SDS011;4934;50.852;8.098;2022-12-01T13:31:10;42.67;;;14.20;;
9789;SDS011;4934;50.852;8.098;2022-12-01T13:34:00;40.72;;;15.68;;
9789;SDS011;4934;50.852;8.098;2022-12-01T13:36:27;43.80;;;14.82;;
9789;SDS011;4934;50.852;8.098;2022-12-01T13:41:38;56.22;;;18.20;;
9789;SDS011;4934;50.852;8.098;2022-12-01T13:46:51;48.33;;;15.60;;
9789;SDS011;4934;50.852;8.098;2022-12-01T14:08:12;42.97;;;15.65;;
9789;SDS011;4934;50.852;8.098;2022-12-01T14:14:01;40.33;;;15.02;;
9789;SDS011;4934;50.852;8.098;2022-12-01T14:16:53;46.55;;;16.17;;
9789;SDS011;4934;50.852;8.098;2022-12-01T14:21:57;40.40;;;15.45;;
9789;SDS011;4934;50.852;8.098;2022-12-01T14:24:26;40.33;;;13.52;;
9789;SDS011;4934;50.852;8.098;2022-12-01T14:26:59;41.38;;;15.23;;
9789;SDS011;4934;50.852;8.098;2022-12-01T14:29:37;46.50;;;16.83;;
9789;SDS011;4934;50.852;8.098;2022-12-01T14:34:34;49.20;;;18.08;;
9789;SDS011;4934;50.852;8.098;2022-12-01T14:39:49;51.80;;;18.00;;
9789;SDS011;4934;50.852;8.098;2022-12-01T14:42:35;47.90;;;17.30;;
9789;SDS011;4934;50.852;8.098;2022-12-01T14:45:32;52.75;;;17.35;;
9789;SDS011;4934;50.852;8.098;2022-12-01T14:48:05;55.03;;;18.75;;
9789;SDS011;4934;50.852;8.098;2022-12-01T14:50:45;45.72;;;15.98;;
9789;SDS011;4934;50.852;8.098;2022-12-01T14:53:15;46.28;;;16.30;;
9789;SDS011;4934;50.852;8.098;2022-12-01T14:55:54;39.75;;;15.52;;
9789;SDS011;4934;50.852;8.098;2022-12-01T14:58:32;51.78;;;17.10;;
9789;SDS011;4934;50.852;8.098;2022-12-01T15:01:08;46.65;;;16.45;;
9789;SDS011;4934;50.852;8.098;2022-12-01T15:03:40;52.40;;;17.03;;
9789;SDS011;4934;50.852;8.098;2022-12-01T15:06:09;52.65;;;16.58;;
9789;SDS011;4934;50.852;8.098;2022-12-01T15:08:41;52.55;;;17.30;;
9789;SDS011;4934;50.852;8.098;2022-12-01T15:16:27;51.67;;;17.33;;
9789;SDS011;4934;50.852;8.098;2022-12-01T15:18:54;51.53;;;16.67;;
9789;SDS011;4934;50.852;8.098;2022-12-01T15:21:30;48.85;;;15.73;;
9789;SDS011;4934;50.852;8.098;2022-12-01T15:24:19;49.58;;;17.52;;
9789;SDS011;4934;50.852;8.098;2022-12-01T15:26:48;54.90;;;17.83;;
9789;SDS011;4934;50.852;8.098;2022-12-01T15:31:59;53.60;;;18.40;;
9789;SDS011;4934;50.852;8.098;2022-12-01T15:34:37;52.67;;;16.30;;
9789;SDS011;4934;50.852;8.098;2022-12-01T15:37:08;62.30;;;19.15;;
9789;SDS011;4934;50.852;8.098;2022-12-01T15:39:42;55.33;;;18.80;;
9789;SDS011;4934;50.852;8.098;2022-12-01T15:42:30;52.28;;;17.63;;
9789;SDS011;4934;50.852;8.098;2022-12-01T15:50:24;51.47;;;17.42;;
9789;SDS011;4934;50.852;8.098;2022-12-01T15:53:23;55.13;;;18.00;;
9789;SDS011;4934;50.852;8.098;2022-12-01T15:55:46;48.22;;;17.15;;
9789;SDS011;4934;50.852;8.098;2022-12-01T15:58:20;59.90;;;18.35;;
9789;SDS011;4934;50.852;8.098;2022-12-01T16:00:56;62.58;;;18.73;;
9789;SDS011;4934;50.852;8.098;2022-12-01T16:05:52;56.42;;;17.65;;
9789;SDS011;4934;50.852;8.098;2022-12-01T16:08:20;60.50;;;18.80;;
9789;SDS011;4934;50.852;8.098;2022-12-01T16:11:32;55.38;;;18.73;;
9789;SDS011;4934;50.852;8.098;2022-12-01T16:13:42;53.72;;;17.55;;
9789;SDS011;4934;50.852;8.098;2022-12-01T16:16:18;50.10;;;17.92;;
9789;SDS011;4934;50.852;8.098;2022-12-01T16:21:41;54.50;;;18.05;;
9789;SDS011;4934;50.852;8.098;2022-12-01T16:24:12;55.33;;;18.58;;
9789;SDS011;4934;50.852;8.098;2022-12-01T16:26:52;49.75;;;17.60;;
9789;SDS011;4934;50.852;8.098;2022-12-01T16:29:24;44.22;;;16.05;;
9789;SDS011;4934;50.852;8.098;2022-12-01T16:31:52;52.63;;;17.73;;
9789;SDS011;4934;50.852;8.098;2022-12-01T16:34:20;54.30;;;17.45;;
9789;SDS011;4934;50.852;8.098;2022-12-01T16:36:47;48.10;;;16.63;;
9789;SDS011;4934;50.852;8.098;2022-12-01T16:39:13;47.92;;;16.67;;
9789;SDS011;4934;50.852;8.098;2022-12-01T16:41:40;53.78;;;17.80;;
9789;SDS011;4934;50.852;8.098;2022-12-01T16:44:15;46.67;;;16.35;;
9789;SDS011;4934;50.852;8.098;2022-12-01T16:46:41;48.80;;;16.42;;
9789;SDS011;4934;50.852;8.098;2022-12-01T16:49:07;41.95;;;15.35;;
9789;SDS011;4934;50.852;8.098;2022-12-01T16:51:34;47.20;;;17.45;;
9789;SDS011;4934;50.852;8.098;2022-12-01T16:54:00;44.47;;;15.43;;
9789;SDS011;4934;50.852;8.098;2022-12-01T16:56:28;50.58;;;18.08;;
9789;SDS011;4934;50.852;8.098;2022-12-01T16:58:53;54.60;;;19.10;;
9789;SDS011;4934;50.852;8.098;2022-12-01T17:01:19;48.10;;;16.77;;
9789;SDS011;4934;50.852;8.098;2022-12-01T17:03:45;44.95;;;16.80;;
9789;SDS011;4934;50.852;8.098;2022-12-01T17:06:13;47.85;;;17.83;;
9789;SDS011;4934;50.852;8.098;2022-12-01T17:08:55;45.50;;;17.08;;
9789;SDS011;4934;50.852;8.098;2022-12-01T17:13:57;46.95;;;17.48;;
9789;SDS011;4934;50.852;8.098;2022-12-01T17:16:23;47.78;;;17.70;;
9789;SDS011;4934;50.852;8.098;2022-12-01T17:18:48;43.92;;;15.85;;
9789;SDS011;4934;50.852;8.098;2022-12-01T17:21:15;44.63;;;16.88;;
9789;SDS011;4934;50.852;8.098;2022-12-01T17:23:40;45.67;;;16.63;;
9789;SDS011;4934;50.852;8.098;2022-12-01T17:26:07;54.20;;;17.92;;
9789;SDS011;4934;50.852;8.098;2022-12-01T17:31:01;50.53;;;16.42;;
9789;SDS011;4934;50.852;8.098;2022-12-01T17:33:27;51.57;;;18.30;;
9789;SDS011;4934;50.852;8.098;2022-12-01T17:35:53;50.33;;;17.27;;
9789;SDS011;4934;50.852;8.098;2022-12-01T17:38:19;43.63;;;15.80;;
9789;SDS011;4934;50.852;8.098;2022-12-01T17:40:44;51.42;;;17.77;;
9789;SDS011;4934;50.852;8.098;2022-12-01T17:43:10;43.67;;;15.40;;
9789;SDS011;4934;50.852;8.098;2022-12-01T17:45:36;43.75;;;16.13;;
9789;SDS011;4934;50.852;8.098;2022-12-01T17:48:06;46.50;;;15.88;;
9789;SDS011;4934;50.852;8.098;2022-12-01T17:50:32;41.10;;;14.52;;
9789;SDS011;4934;50.852;8.098;2022-12-01T17:52:57;46.37;;;16.83;;
9789;SDS011;4934;50.852;8.098;2022-12-01T17:55:23;44.03;;;16.77;;
9789;SDS011;4934;50.852;8.098;2022-12-01T17:57:48;52.58;;;18.02;;
9789;SDS011;4934;50.852;8.098;2022-12-01T18:00:14;40.38;;;15.75;;
9789;SDS011;4934;50.852;8.098;2022-12-01T18:02:40;44.20;;;15.33;;
9789;SDS011;4934;50.852;8.098;2022-12-01T18:05:06;43.30;;;15.83;;
9789;SDS011;4934;50.852;8.098;2022-12-01T18:07:32;47.53;;;16.35;;
9789;SDS011;4934;50.852;8.098;2022-12-01T18:09:57;42.13;;;16.23;;
9789;SDS011;4934;50.852;8.098;2022-12-01T18:12:23;47.15;;;17.02;;
9789;SDS011;4934;50.852;8.098;2022-12-01T18:14:48;45.10;;;15.73;;
9789;SDS011;4934;50.852;8.098;2022-12-01T18:17:14;42.47;;;16.13;;
9789;SDS011;4934;50.852;8.098;2022-12-01T18:19:39;42.40;;;15.83;;
9789;SDS011;4934;50.852;8.098;2022-12-01T18:22:05;41.33;;;16.00;;
9789;SDS011;4934;50.852;8.098;2022-12-01T18:24:31;36.77;;;14.40;;
9789;SDS011;4934;50.852;8.098;2022-12-01T18:26:56;38.17;;;14.13;;
9789;SDS011;4934;50.852;8.098;2022-12-01T18:29:22;39.40;;;14.00;;
9789;SDS011;4934;50.852;8.098;2022-12-01T18:31:53;41.37;;;13.77;;
9789;SDS011;4934;50.852;8.098;2022-12-01T18:34:23;36.97;;;13.40;;
9789;SDS011;4934;50.852;8.098;2022-12-01T18:36:53;38.27;;;13.53;;
9789;SDS011;4934;50.852;8.098;2022-12-01T18:39:19;36.78;;;13.45;;
9789;SDS011;4934;50.852;8.098;2022-12-01T18:41:45;37.05;;;12.63;;
9789;SDS011;4934;50.852;8.098;2022-12-01T18:44:11;37.75;;;14.27;;
9789;SDS011;4934;50.852;8.098;2022-12-01T18:46:37;39.37;;;14.43;;
9789;SDS011;4934;50.852;8.098;2022-12-01T18:49:02;34.13;;;14.38;;
9789;SDS011;4934;50.852;8.098;2022-12-01T18:51:29;33.53;;;12.50;;
9789;SDS011;4934;50.852;8.098;2022-12-01T18:53:58;37.53;;;13.37;;
9789;SDS011;4934;50.852;8.098;2022-12-01T18:56:25;39.95;;;14.32;;
9789;SDS011;4934;50.852;8.098;2022-12-01T18:58:52;40.47;;;14.20;;
9789;SDS011;4934;50.852;8.098;2022-12-01T19:01:21;37.23;;;14.13;;
9789;SDS011;4934;50.852;8.098;2022-12-01T19:03:48;40.35;;;14.65;;
9789;SDS011;4934;50.852;8.098;2022-12-01T19:06:14;50.58;;;17.15;;
9789;SDS011;4934;50.852;8.098;2022-12-01T19:08:40;43.50;;;16.17;;